createdAt,value
2023-02-06T00:01:22.360Z,5.31
2023-02-06T00:03:49.418Z,5.33
2023-02-06T00:06:16.545Z,5.31
2023-02-06T00:08:44.132Z,5.33
2023-02-06T00:11:16.658Z,5.31
2023-02-06T00:13:45.110Z,5.38
2023-02-06T00:16:27.823Z,5.33
2023-02-06T00:18:56.587Z,5.35
2023-02-06T00:21:26.164Z,5.38
2023-02-06T00:23:58.816Z,5.30
2023-02-06T00:26:26.240Z,5.26
2023-02-06T00:28:53.377Z,5.24
2023-02-06T00:31:21.029Z,5.19
2023-02-06T00:33:48.444Z,5.24
2023-02-06T00:36:15.461Z,5.26
2023-02-06T00:38:42.523Z,5.27
2023-02-06T00:41:09.630Z,5.31
2023-02-06T00:43:36.622Z,5.34
2023-02-06T00:46:03.728Z,5.30
2023-02-06T00:48:30.774Z,5.36
2023-02-06T00:50:57.804Z,5.41
2023-02-06T00:53:24.889Z,5.42
2023-02-06T00:55:51.945Z,5.39
2023-02-06T00:58:18.885Z,5.35
2023-02-06T01:00:45.837Z,5.31
2023-02-06T01:03:12.905Z,5.32
2023-02-06T01:05:40.088Z,5.35
2023-02-06T01:08:07.248Z,5.33
2023-02-06T01:10:34.727Z,5.32
2023-02-06T01:13:01.764Z,5.31
2023-02-06T01:15:29.232Z,5.33
2023-02-06T01:17:56.481Z,5.32
2023-02-06T01:20:24.811Z,5.33
2023-02-06T01:22:52.341Z,5.33
2023-02-06T01:25:19.552Z,5.26
2023-02-06T01:27:46.642Z,5.30
2023-02-06T01:30:14.318Z,5.36
2023-02-06T01:32:42.746Z,5.25
2023-02-06T01:35:11.762Z,5.23
2023-02-06T01:37:40.184Z,5.23
2023-02-06T01:40:14.075Z,5.23
2023-02-06T01:42:41.259Z,5.24
2023-02-06T01:45:26.326Z,5.23
2023-02-06T01:48:02.965Z,5.16
2023-02-06T01:50:32.759Z,5.19
2023-02-06T01:53:00.903Z,5.18
2023-02-06T01:55:28.211Z,5.14
2023-02-06T01:57:55.373Z,5.14
2023-02-06T02:00:22.492Z,5.16
2023-02-06T02:02:50.221Z,5.15
2023-02-06T02:05:19.228Z,5.17
2023-02-06T02:08:04.501Z,5.10
2023-02-06T02:10:32.593Z,5.19
2023-02-06T02:12:59.662Z,5.18
2023-02-06T02:15:41.193Z,5.17
2023-02-06T02:18:34.021Z,5.30
2023-02-06T02:21:41.045Z,5.22
2023-02-06T02:24:50.135Z,5.25
2023-02-06T02:27:56.630Z,5.29
2023-02-06T02:30:59.040Z,5.32
2023-02-06T02:33:56.813Z,5.26
2023-02-06T02:36:48.753Z,5.26
2023-02-06T02:39:56.271Z,5.27
2023-02-06T02:42:36.354Z,5.25
2023-02-06T02:45:19.138Z,5.28
2023-02-06T02:47:55.862Z,5.26
2023-02-06T02:50:23.218Z,5.22
2023-02-06T02:52:50.906Z,5.25
2023-02-06T02:55:22.344Z,5.14
2023-02-06T02:57:56.260Z,5.13
2023-02-06T03:00:25.017Z,5.13
2023-02-06T03:02:54.492Z,5.11
2023-02-06T03:05:24.656Z,5.18
2023-02-06T03:07:53.891Z,5.18
2023-02-06T03:10:30.200Z,5.17
2023-02-06T03:13:10.664Z,5.19
2023-02-06T03:15:53.404Z,5.15
2023-02-06T03:18:36.057Z,5.17
2023-02-06T03:21:06.504Z,5.08
2023-02-06T03:23:39.149Z,5.07
2023-02-06T03:26:15.531Z,5.09
2023-02-06T03:28:48.884Z,5.13
2023-02-06T03:31:24.341Z,5.07
2023-02-06T03:34:20.331Z,5.00
2023-02-06T03:36:47.869Z,5.00
2023-02-06T03:39:15.003Z,4.87
2023-02-06T03:41:43.845Z,4.94
2023-02-06T03:44:18.656Z,4.92
2023-02-06T03:46:47.636Z,4.84
2023-02-06T03:49:17.346Z,4.82
2023-02-06T03:51:54.171Z,4.84
2023-02-06T03:54:24.254Z,4.80
2023-02-06T03:56:58.092Z,4.87
2023-02-06T03:59:25.608Z,4.89
2023-02-06T04:01:57.183Z,4.91
2023-02-06T04:04:31.802Z,4.91
2023-02-06T04:07:15.813Z,4.88
2023-02-06T04:09:42.823Z,4.85
2023-02-06T04:12:11.297Z,4.76
2023-02-06T04:14:38.512Z,4.63
2023-02-06T04:17:06.466Z,4.66
2023-02-06T04:19:34.214Z,4.61
2023-02-06T04:22:02.109Z,4.58
2023-02-06T04:24:30.962Z,4.48
2023-02-06T04:26:59.188Z,4.41
2023-02-06T04:29:26.555Z,4.42
2023-02-06T04:31:53.545Z,4.41
2023-02-06T04:34:20.577Z,4.40
2023-02-06T04:36:47.663Z,4.39
2023-02-06T04:39:14.717Z,4.34
2023-02-06T04:41:41.678Z,4.32
2023-02-06T04:44:08.705Z,4.31
2023-02-06T04:46:35.712Z,4.32
2023-02-06T04:49:03.206Z,4.29
2023-02-06T04:51:30.236Z,4.32
2023-02-06T04:53:57.249Z,4.31
2023-02-06T04:56:25.964Z,4.20
2023-02-06T04:58:53.038Z,4.08
2023-02-06T05:01:20.892Z,4.06
2023-02-06T05:03:48.232Z,4.15
2023-02-06T05:06:16.381Z,4.23
2023-02-06T05:08:43.462Z,4.28
2023-02-06T05:11:10.454Z,4.27
2023-02-06T05:13:37.675Z,4.23
2023-02-06T05:16:13.586Z,4.05
2023-02-06T05:18:42.332Z,3.99
2023-02-06T05:21:09.286Z,3.99
2023-02-06T05:23:36.404Z,4.17
2023-02-06T05:26:03.551Z,4.16
2023-02-06T05:28:33.379Z,4.24
2023-02-06T05:31:01.760Z,4.14
2023-02-06T05:33:29.203Z,3.92
2023-02-06T05:36:03.643Z,4.01
2023-02-06T05:38:31.043Z,4.10
2023-02-06T05:40:58.192Z,4.20
2023-02-06T05:43:25.516Z,4.00
2023-02-06T05:45:52.528Z,3.94
2023-02-06T05:48:19.634Z,3.88
2023-02-06T05:50:50.130Z,3.94
2023-02-06T05:53:18.377Z,4.02
2023-02-06T05:55:45.389Z,3.96
2023-02-06T05:58:12.698Z,3.84
2023-02-06T06:00:39.842Z,3.63
2023-02-06T06:03:06.806Z,3.68
2023-02-06T06:05:34.015Z,3.59
2023-02-06T06:08:01.260Z,3.50
2023-02-06T06:10:28.355Z,3.53
2023-02-06T06:12:55.412Z,3.53
2023-02-06T06:15:22.405Z,3.52
2023-02-06T06:17:49.389Z,3.36
2023-02-06T06:20:16.656Z,3.34
2023-02-06T06:22:43.883Z,3.31
2023-02-06T06:25:10.987Z,3.35
2023-02-06T06:27:37.928Z,3.40
2023-02-06T06:30:05.428Z,3.34
2023-02-06T06:32:32.402Z,3.31
2023-02-06T06:34:59.369Z,3.23
2023-02-06T06:37:26.448Z,3.17
2023-02-06T06:39:53.421Z,3.12
2023-02-06T06:42:20.398Z,3.05
2023-02-06T06:44:47.365Z,3.11
2023-02-06T06:47:14.334Z,6.41
2023-02-06T06:49:41.352Z,8.42
2023-02-06T06:52:19.507Z,9.60
2023-02-06T06:54:52.517Z,10.36
2023-02-06T06:57:21.019Z,10.79
2023-02-06T06:59:48.095Z,11.07
2023-02-06T07:02:15.720Z,11.31
2023-02-06T07:04:43.141Z,11.49
2023-02-06T07:07:11.201Z,11.65
2023-02-06T07:09:38.227Z,11.75
2023-02-06T07:12:05.777Z,11.89
2023-02-06T07:14:32.717Z,11.97
2023-02-06T07:17:01.697Z,12.05
2023-02-06T07:19:28.742Z,12.14
2023-02-06T07:21:55.722Z,12.23
2023-02-06T07:24:22.703Z,12.30
2023-02-06T07:26:49.749Z,12.41
2023-02-06T07:29:16.786Z,12.47
2023-02-06T07:31:43.783Z,12.51
2023-02-06T07:34:11.230Z,12.55
2023-02-06T07:36:38.372Z,12.61
2023-02-06T07:39:05.597Z,12.66
2023-02-06T07:41:32.595Z,12.73
2023-02-06T07:43:59.641Z,12.77
2023-02-06T07:46:26.839Z,12.83
2023-02-06T07:48:53.885Z,12.85
2023-02-06T07:51:20.896Z,12.87
2023-02-06T07:53:48.626Z,12.90
2023-02-06T07:56:20.925Z,12.95
2023-02-06T07:58:53.506Z,12.99
2023-02-06T08:01:22.338Z,13.01
2023-02-06T08:03:51.422Z,13.02
2023-02-06T08:06:20.216Z,13.02
2023-02-06T08:08:47.846Z,13.05
2023-02-06T08:11:20.686Z,13.07
2023-02-06T08:13:48.499Z,13.10
2023-02-06T08:16:22.889Z,13.11
2023-02-06T08:18:49.978Z,13.13
2023-02-06T08:21:21.550Z,13.14
2023-02-06T08:24:00.818Z,13.14
2023-02-06T08:26:29.869Z,13.18
2023-02-06T08:29:00.545Z,13.17
2023-02-06T08:31:32.272Z,13.21
2023-02-06T08:33:59.663Z,13.22
2023-02-06T08:36:28.131Z,13.22
2023-02-06T08:38:55.497Z,13.23
2023-02-06T08:41:26.021Z,13.22
2023-02-06T08:43:57.214Z,13.24
2023-02-06T08:46:27.057Z,13.25
2023-02-06T08:49:05.194Z,13.28
2023-02-06T08:51:34.175Z,13.29
2023-02-06T08:54:08.797Z,13.30
2023-02-06T08:56:36.908Z,13.32
2023-02-06T08:59:06.137Z,13.34
2023-02-06T09:01:35.987Z,13.36
2023-02-06T09:04:09.780Z,13.35
2023-02-06T09:06:40.405Z,13.36
2023-02-06T09:09:08.541Z,13.37
2023-02-06T09:11:36.314Z,13.38
2023-02-06T09:14:05.461Z,13.40
2023-02-06T09:16:33.560Z,13.42
2023-02-06T09:19:02.345Z,13.43
2023-02-06T09:21:32.924Z,13.43
2023-02-06T09:24:03.961Z,13.43
2023-02-06T09:26:57.083Z,13.45
2023-02-06T09:29:25.652Z,13.45
2023-02-06T09:31:52.641Z,13.47
2023-02-06T09:34:19.673Z,13.47
2023-02-06T09:36:46.693Z,13.47
2023-02-06T09:39:13.982Z,13.49
2023-02-06T09:41:44.610Z,13.50
2023-02-06T09:44:41.816Z,13.50
2023-02-06T09:47:32.302Z,13.52
2023-02-06T09:50:17.299Z,13.53
2023-02-06T09:52:56.773Z,13.53
2023-02-06T09:55:41.336Z,13.53
2023-02-06T09:58:25.944Z,13.53
2023-02-06T10:00:59.528Z,13.57
2023-02-06T10:04:00.505Z,13.57
2023-02-06T10:06:31.928Z,13.55
2023-02-06T10:09:08.080Z,13.57
2023-02-06T10:11:48.017Z,13.57
2023-02-06T10:14:46.894Z,13.58
2023-02-06T10:17:16.507Z,13.60
2023-02-06T10:20:21.921Z,13.60
2023-02-06T10:23:39.205Z,13.57
2023-02-06T10:26:18.163Z,13.59
2023-02-06T10:28:56.713Z,13.63
2023-02-06T10:31:36.674Z,13.60
2023-02-06T10:34:20.865Z,13.59
2023-02-06T10:37:00.525Z,13.60
2023-02-06T10:39:45.470Z,13.60
2023-02-06T10:42:24.196Z,13.61
2023-02-06T10:45:21.316Z,13.61
2023-02-06T10:48:29.381Z,13.61
2023-02-06T10:51:21.489Z,13.62
2023-02-06T10:54:06.855Z,13.63
2023-02-06T10:56:40.732Z,13.60
2023-02-06T10:59:43.292Z,13.63
2023-02-06T11:02:10.173Z,13.64
2023-02-06T11:04:47.434Z,13.62
2023-02-06T11:07:50.916Z,13.63
2023-02-06T11:10:21.644Z,13.65
2023-02-06T11:12:57.018Z,13.65
2023-02-06T11:15:46.412Z,13.65
2023-02-06T11:18:19.473Z,13.65
2023-02-06T11:20:48.298Z,13.66
2023-02-06T11:23:25.932Z,13.65
2023-02-06T11:26:18.461Z,13.66
2023-02-06T11:29:01.862Z,13.66
2023-02-06T11:31:46.708Z,13.67
2023-02-06T11:34:42.485Z,13.66
2023-02-06T11:37:36.966Z,13.69
2023-02-06T11:40:19.005Z,13.67
2023-02-06T11:42:48.140Z,13.70
2023-02-06T11:45:27.786Z,13.70
2023-02-06T11:47:55.611Z,13.70
2023-02-06T11:50:28.627Z,13.70
2023-02-06T11:53:01.044Z,13.71
2023-02-06T11:55:34.432Z,13.72
2023-02-06T11:58:13.452Z,13.73
2023-02-06T12:01:04.227Z,13.70
2023-02-06T12:03:46.289Z,13.70
2023-02-06T12:06:36.342Z,13.72
2023-02-06T12:09:11.420Z,13.71
2023-02-06T12:11:55.520Z,13.73
2023-02-06T12:14:40.149Z,13.70
2023-02-06T12:17:32.942Z,13.69
2023-02-06T12:20:26.464Z,13.70
2023-02-06T12:23:31.956Z,13.70
2023-02-06T12:26:03.816Z,13.70
2023-02-06T12:28:39.194Z,13.73
2023-02-06T12:31:47.508Z,13.73
2023-02-06T12:34:41.874Z,13.74
2023-02-06T12:37:25.789Z,13.75
2023-02-06T12:39:53.297Z,13.74
2023-02-06T12:42:43.909Z,13.73
2023-02-06T12:45:39.898Z,13.75
2023-02-06T12:48:17.463Z,13.75
2023-02-06T12:51:17.553Z,13.72
2023-02-06T12:53:51.490Z,13.73
2023-02-06T12:56:27.229Z,13.73
2023-02-06T12:59:28.375Z,13.74
2023-02-06T13:02:19.419Z,13.72
2023-02-06T13:04:47.333Z,13.72
2023-02-06T13:07:20.147Z,13.76
2023-02-06T13:09:59.056Z,13.76
2023-02-06T13:12:31.528Z,13.78
2023-02-06T13:15:08.030Z,13.74
2023-02-06T13:17:44.982Z,13.77
2023-02-06T13:20:15.479Z,13.75
2023-02-06T13:23:13.879Z,13.73
2023-02-06T13:25:40.770Z,13.73
2023-02-06T13:28:22.934Z,13.77
2023-02-06T13:31:02.882Z,13.75
2023-02-06T13:34:01.692Z,13.70
2023-02-06T13:36:42.964Z,13.71
2023-02-06T13:39:27.805Z,13.71
2023-02-06T13:41:55.927Z,13.75
2023-02-06T13:44:32.234Z,13.75
2023-02-06T13:47:08.110Z,13.78
2023-02-06T13:50:02.857Z,13.81
2023-02-06T13:52:53.165Z,13.83
2023-02-06T13:56:05.977Z,13.84
2023-02-06T13:59:00.752Z,13.84
2023-02-06T14:01:31.605Z,13.86
2023-02-06T14:03:59.684Z,13.81
2023-02-06T14:06:36.910Z,13.83
2023-02-06T14:10:02.945Z,13.85
2023-02-06T14:13:04.881Z,13.84
2023-02-06T14:15:49.698Z,13.85
2023-02-06T14:18:39.447Z,13.86
2023-02-06T14:21:30.842Z,13.85
2023-02-06T14:24:30.867Z,13.85
2023-02-06T14:27:39.660Z,13.84
2023-02-06T14:30:28.157Z,13.83
2023-02-06T14:33:40.891Z,13.86
2023-02-06T14:36:42.510Z,13.87
2023-02-06T14:39:34.185Z,13.89
2023-02-06T14:42:33.034Z,13.91
2023-02-06T14:45:41.794Z,13.92
2023-02-06T14:48:25.605Z,13.91
2023-02-06T14:50:58.343Z,13.92
2023-02-06T14:53:40.097Z,13.92
2023-02-06T14:56:24.846Z,13.92
2023-02-06T14:58:51.890Z,13.93
2023-02-06T15:01:18.755Z,13.95
2023-02-06T15:03:48.559Z,13.92
2023-02-06T15:06:32.612Z,13.94
2023-02-06T15:09:00.339Z,13.93
2023-02-06T15:11:33.129Z,13.92
2023-02-06T15:14:23.129Z,13.92
2023-02-06T15:16:51.659Z,13.93
2023-02-06T15:19:26.933Z,13.94
2023-02-06T15:22:15.184Z,13.93
2023-02-06T15:25:12.871Z,13.92
2023-02-06T15:27:39.890Z,13.92
2023-02-06T15:30:25.898Z,13.93
2023-02-06T15:32:55.949Z,13.91
2023-02-06T15:35:37.075Z,13.92
2023-02-06T15:38:15.520Z,13.90
2023-02-06T15:40:54.661Z,13.89
2023-02-06T15:43:25.497Z,13.89
2023-02-06T15:45:59.837Z,13.87
2023-02-06T15:48:33.906Z,13.88
2023-02-06T15:51:20.246Z,13.89
2023-02-06T15:53:48.742Z,13.90
2023-02-06T15:56:40.981Z,13.93
2023-02-06T15:59:21.181Z,13.93
2023-02-06T16:01:49.451Z,9.86
2023-02-06T16:04:31.044Z,9.43
2023-02-06T16:07:14.029Z,9.25
2023-02-06T16:10:04.566Z,9.24
2023-02-06T16:12:43.294Z,9.20
2023-02-06T16:15:36.316Z,9.19
2023-02-06T16:18:24.935Z,9.16
2023-02-06T16:20:52.045Z,9.16
2023-02-06T16:23:23.869Z,9.18
2023-02-06T16:26:16.364Z,9.27
2023-02-06T16:29:03.825Z,9.26
2023-02-06T16:31:35.036Z,9.21
2023-02-06T16:34:18.525Z,9.47
2023-02-06T16:36:45.936Z,9.35
2023-02-06T16:39:12.918Z,9.24
2023-02-06T16:41:40.662Z,9.14
2023-02-06T16:44:13.284Z,9.19
2023-02-06T16:46:40.761Z,9.01
2023-02-06T16:49:20.818Z,8.89
2023-02-06T16:51:52.288Z,8.88
2023-02-06T16:54:32.027Z,8.85
2023-02-06T16:57:20.368Z,8.81
2023-02-06T16:59:47.387Z,8.80
2023-02-06T17:02:15.346Z,8.81
2023-02-06T17:04:42.415Z,8.79
2023-02-06T17:07:19.471Z,8.75
2023-02-06T17:09:47.866Z,8.75
2023-02-06T17:12:19.136Z,8.63
2023-02-06T17:14:47.019Z,8.61
2023-02-06T17:17:19.688Z,8.52
2023-02-06T17:19:48.653Z,8.47
2023-02-06T17:22:16.103Z,8.46
2023-02-06T17:24:43.843Z,8.45
2023-02-06T17:27:19.324Z,8.46
2023-02-06T17:29:47.702Z,8.44
2023-02-06T17:32:16.311Z,8.46
2023-02-06T17:34:43.664Z,8.44
2023-02-06T17:37:20.626Z,8.43
2023-02-06T17:39:52.272Z,8.42
2023-02-06T17:42:22.038Z,8.38
2023-02-06T17:44:49.772Z,8.38
2023-02-06T17:47:16.986Z,8.32
2023-02-06T17:49:44.121Z,8.35
2023-02-06T17:52:11.059Z,8.33
2023-02-06T17:54:38.480Z,8.31
2023-02-06T17:57:05.500Z,8.35
2023-02-06T17:59:32.456Z,8.33
2023-02-06T18:01:59.554Z,8.29
2023-02-06T18:04:26.940Z,8.23
2023-02-06T18:06:54.052Z,8.25
2023-02-06T18:09:21.012Z,8.23
2023-02-06T18:11:48.075Z,8.18
2023-02-06T18:14:15.693Z,8.16
2023-02-06T18:16:42.925Z,8.14
2023-02-06T18:19:10.530Z,8.17
2023-02-06T18:21:37.587Z,8.22
2023-02-06T18:24:05.678Z,8.20
2023-02-06T18:26:32.954Z,8.09
2023-02-06T18:29:04.572Z,8.04
2023-02-06T18:31:35.702Z,7.97
2023-02-06T18:34:07.942Z,7.91
2023-02-06T18:36:36.849Z,7.91
2023-02-06T18:39:05.913Z,7.98
2023-02-06T18:41:51.690Z,8.03
2023-02-06T18:44:18.767Z,7.97
2023-02-06T18:46:45.987Z,7.98
2023-02-06T18:49:12.972Z,7.93
2023-02-06T18:51:40.515Z,7.86
2023-02-06T18:54:07.968Z,7.76
2023-02-06T18:56:35.306Z,7.67
2023-02-06T18:59:03.972Z,7.62
2023-02-06T19:01:32.032Z,7.40
2023-02-06T19:03:59.503Z,7.36
2023-02-06T19:06:35.307Z,7.41
2023-02-06T19:09:07.164Z,7.34
2023-02-06T19:11:35.899Z,7.28
2023-02-06T19:14:05.124Z,7.19
2023-02-06T19:16:32.850Z,7.07
2023-02-06T19:18:59.994Z,7.05
2023-02-06T19:21:27.654Z,6.95
2023-02-06T19:23:59.779Z,6.96
2023-02-06T19:26:28.157Z,6.93
2023-02-06T19:28:57.256Z,6.84
2023-02-06T19:31:24.885Z,6.88
2023-02-06T19:33:55.373Z,6.85
2023-02-06T19:36:24.749Z,6.79
2023-02-06T19:38:57.004Z,6.65
2023-02-06T19:41:26.726Z,6.60
2023-02-06T19:43:55.534Z,6.49
2023-02-06T19:46:27.031Z,6.54
2023-02-06T19:48:55.958Z,6.54
2023-02-06T19:51:30.633Z,6.38
2023-02-06T19:53:59.278Z,6.36
2023-02-06T19:56:34.499Z,6.27
2023-02-06T19:59:18.302Z,6.27
2023-02-06T20:01:55.014Z,6.23
2023-02-06T20:04:26.901Z,6.22
2023-02-06T20:06:55.842Z,6.06
2023-02-06T20:09:24.037Z,6.00
2023-02-06T20:11:51.451Z,5.96
2023-02-06T20:14:22.724Z,5.87
2023-02-06T20:16:49.838Z,5.80
2023-02-06T20:19:24.809Z,5.76
2023-02-06T20:21:56.006Z,5.70
2023-02-06T20:24:27.038Z,5.66
2023-02-06T20:26:58.978Z,5.62
2023-02-06T20:29:30.373Z,5.57
2023-02-06T20:31:58.296Z,5.49
2023-02-06T20:34:27.198Z,5.41
2023-02-06T20:36:55.601Z,5.39
2023-02-06T20:39:23.327Z,5.30
2023-02-06T20:41:50.953Z,5.28
2023-02-06T20:44:19.905Z,5.20
2023-02-06T20:46:47.498Z,5.17
2023-02-06T20:49:18.356Z,5.12
2023-02-06T20:51:45.560Z,5.09
2023-02-06T20:54:12.880Z,5.04
2023-02-06T20:56:41.054Z,4.99
2023-02-06T20:59:11.822Z,4.95
2023-02-06T21:01:40.006Z,4.94
2023-02-06T21:04:09.968Z,4.91
2023-02-06T21:06:38.718Z,4.87
2023-02-06T21:09:07.468Z,4.84
2023-02-06T21:11:39.400Z,4.95
2023-02-06T21:14:07.145Z,4.77
2023-02-06T21:16:35.841Z,4.60
2023-02-06T21:19:05.213Z,4.49
2023-02-06T21:21:32.801Z,4.40
2023-02-06T21:24:00.052Z,4.43
2023-02-06T21:26:28.442Z,4.41
2023-02-06T21:28:58.334Z,4.33
2023-02-06T21:31:36.015Z,4.32
2023-02-06T21:34:22.194Z,4.27
2023-02-06T21:36:49.537Z,4.25
2023-02-06T21:39:21.984Z,4.23
2023-02-06T21:41:53.846Z,4.18
2023-02-06T21:44:23.976Z,4.20
2023-02-06T21:46:51.506Z,4.17
2023-02-06T21:49:18.912Z,4.14
2023-02-06T21:51:46.036Z,4.25
2023-02-06T21:54:13.070Z,4.21
2023-02-06T21:56:40.156Z,4.21
2023-02-06T21:59:08.029Z,4.11
2023-02-06T22:01:36.116Z,4.00
2023-02-06T22:04:03.947Z,3.93
2023-02-06T22:06:32.069Z,3.95
2023-02-06T22:09:05.232Z,3.96
2023-02-06T22:11:32.408Z,4.00
2023-02-06T22:14:07.230Z,3.99
2023-02-06T22:16:34.806Z,3.96
2023-02-06T22:19:02.054Z,3.94
2023-02-06T22:21:32.078Z,3.94
2023-02-06T22:24:02.605Z,3.95
2023-02-06T22:26:30.377Z,4.00
2023-02-06T22:28:59.566Z,3.91
2023-02-06T22:31:30.235Z,3.92
2023-02-06T22:33:59.443Z,3.89
2023-02-06T22:36:30.220Z,3.88
2023-02-06T22:39:04.637Z,3.81
2023-02-06T22:41:31.665Z,3.75
2023-02-06T22:43:58.783Z,3.69
2023-02-06T22:46:33.936Z,3.62
2023-02-06T22:49:01.717Z,3.55
2023-02-06T22:51:29.155Z,3.59
2023-02-06T22:53:56.237Z,3.68
2023-02-06T22:56:31.442Z,3.62
2023-02-06T22:59:10.469Z,3.52
2023-02-06T23:01:50.448Z,3.56
2023-02-06T23:04:21.530Z,3.51
2023-02-06T23:06:49.565Z,3.52
2023-02-06T23:09:33.269Z,3.52
2023-02-06T23:12:01.037Z,3.50
2023-02-06T23:14:30.878Z,3.50
2023-02-06T23:17:00.248Z,3.46
2023-02-06T23:19:27.705Z,3.42
2023-02-06T23:21:54.991Z,3.42
2023-02-06T23:24:22.031Z,3.42
2023-02-06T23:26:51.317Z,3.47
2023-02-06T23:29:19.529Z,3.46
2023-02-06T23:31:48.302Z,3.49
2023-02-06T23:34:17.902Z,3.43
2023-02-06T23:36:46.099Z,3.47
2023-02-06T23:39:13.730Z,3.27
2023-02-06T23:41:41.523Z,3.20
2023-02-06T23:44:10.644Z,3.25
2023-02-06T23:46:39.726Z,3.18
2023-02-06T23:49:07.307Z,3.19
2023-02-06T23:51:35.848Z,3.22
2023-02-06T23:54:03.520Z,3.11
2023-02-06T23:56:32.414Z,3.11
2023-02-06T23:59:01.681Z,3.08
